Time;durP1;ratioP1;P1;durP2;ratioP2;P2;SDS_P1;SDS_P2;PMS_P1;PMS_P2;Temp;Humidity;BMP_temperature;BMP_pressure;BME280_temperature;BME280_humidity;BME280_pressure;Samples;Min_cycle;Max_cycle;Signal;HPM_P1;HPM_P2
2022/09/03 00:00:08;;;;;;;3.58;1.20;;;17.50;77.80;;;;;;4986578;28;20038;-56
2022/09/03 00:02:37;;;;;;;4.95;0.90;;;17.40;77.80;;;;;;5020569;28;20040;-55
2022/09/03 00:05:25;;;;;;;2.72;0.98;;;17.40;78.20;;;;;;5046021;28;20071;-57
2022/09/03 00:07:57;;;;;;;3.03;1.00;;;17.40;78.20;;;;;;5019318;28;20049;-57
2022/09/03 00:10:36;;;;;;;6.30;1.30;;;17.30;78.10;;;;;;5048973;28;20134;-57
2022/09/03 00:13:05;;;;;;;5.13;1.25;;;17.30;78.20;;;;;;5026288;28;20083;-57
2022/09/03 00:15:33;;;;;;;4.85;1.10;;;17.30;78.30;;;;;;5045102;28;20033;-56
2022/09/03 00:18:09;;;;;;;5.53;1.02;;;17.30;78.30;;;;;;5049169;28;20045;-56
2022/09/03 00:21:07;;;;;;;3.53;1.00;;;17.20;78.10;;;;;;5047796;28;20285;-56
2022/09/03 00:23:37;;;;;;;3.78;1.27;;;17.20;78.10;;;;;;5041338;28;20557;-56
2022/09/03 00:26:12;;;;;;;3.72;1.00;;;17.20;78.00;;;;;;5024918;28;20102;-57
2022/09/03 00:28:43;;;;;;;1.45;0.90;;;17.10;78.10;;;;;;5041134;28;20511;-54
2022/09/03 00:31:26;;;;;;;1.90;0.88;;;17.10;78.20;;;;;;5033517;28;20053;-56
2022/09/03 00:33:58;;;;;;;5.30;1.35;;;17.10;78.20;;;;;;5035908;28;20049;-57
2022/09/03 00:36:48;;;;;;;4.20;0.98;;;17.00;78.30;;;;;;5043723;28;20041;-57
2022/09/03 00:39:20;;;;;;;3.72;1.10;;;17.00;78.60;;;;;;5037184;28;20080;-56
2022/09/03 00:41:49;;;;;;;2.17;0.95;;;16.90;78.40;;;;;;5039707;28;20073;-56
2022/09/03 00:44:33;;;;;;;4.80;1.20;;;17.00;78.40;;;;;;5041864;28;20060;-56
2022/09/03 00:47:11;;;;;;;3.03;1.08;;;16.90;78.60;;;;;;5041812;28;20048;-56
2022/09/03 00:49:45;;;;;;;2.60;0.95;;;16.90;78.50;;;;;;5014501;28;20510;-56
2022/09/03 00:52:40;;;;;;;2.20;1.00;;;16.90;78.60;;;;;;5041913;28;20043;-57
2022/09/03 00:55:14;;;;;;;3.10;1.15;;;16.80;78.60;;;;;;5024945;28;20053;-57
2022/09/03 00:57:55;;;;;;;7.50;0.90;;;16.70;78.80;;;;;;5039646;28;20049;-52
2022/09/03 01:00:21;;;;;;;5.03;0.90;;;16.70;79.00;;;;;;5042771;28;20303;-55
2022/09/03 01:03:25;;;;;;;5.20;0.95;;;16.70;79.10;;;;;;5049157;28;20134;-52
2022/09/03 01:06:10;;;;;;;3.50;0.88;;;16.60;79.10;;;;;;4960078;28;20364;-55
2022/09/03 01:08:40;;;;;;;4.38;1.63;;;16.60;79.30;;;;;;5033342;28;20052;-56
2022/09/03 01:11:45;;;;;;;3.53;0.98;;;16.60;79.40;;;;;;5040499;28;20359;-52
2022/09/03 01:14:39;;;;;;;3.30;1.08;;;16.50;79.70;;;;;;5044533;28;20056;-53
2022/09/03 01:17:14;;;;;;;3.63;1.00;;;16.50;79.80;;;;;;5042158;28;20558;-55
2022/09/03 01:19:54;;;;;;;4.75;0.90;;;16.50;80.00;;;;;;5050165;28;20037;-54
2022/09/03 01:22:59;;;;;;;3.22;0.95;;;16.50;80.20;;;;;;5043071;28;20041;-55
2022/09/03 01:25:47;;;;;;;2.63;0.82;;;16.40;80.30;;;;;;5033187;28;20056;-55
2022/09/03 01:28:45;;;;;;;2.05;0.70;;;16.40;80.20;;;;;;5043913;28;20077;-55
2022/09/03 01:31:25;;;;;;;3.17;0.98;;;16.40;80.20;;;;;;5040922;28;20059;-57
2022/09/03 01:34:06;;;;;;;2.40;0.85;;;16.40;80.30;;;;;;5032121;28;20637;-54
2022/09/03 01:36:56;;;;;;;4.68;1.73;;;16.40;80.30;;;;;;5046933;28;20045;-56
2022/09/03 01:39:37;;;;;;;2.95;1.05;;;16.40;80.50;;;;;;5038158;28;20103;-54
2022/09/03 01:42:27;;;;;;;5.03;0.93;;;16.30;80.40;;;;;;5039338;28;20041;-55
2022/09/03 01:45:10;;;;;;;2.72;1.10;;;16.40;80.40;;;;;;5043578;28;20662;-54
2022/09/03 01:47:51;;;;;;;3.53;1.02;;;16.30;80.90;;;;;;5034368;28;20427;-56
2022/09/03 01:50:43;;;;;;;1.63;0.90;;;16.30;81.30;;;;;;5044961;28;20103;-55
2022/09/03 01:53:11;;;;;;;4.97;1.10;;;16.30;80.80;;;;;;5022950;28;20045;-56
2022/09/03 01:56:04;;;;;;;2.38;0.95;;;16.30;80.70;;;;;;5046084;28;20041;-54
2022/09/03 01:59:01;;;;;;;3.42;1.02;;;16.20;80.70;;;;;;5036121;28;20109;-55
2022/09/03 02:01:34;;;;;;;3.50;0.90;;;16.30;80.80;;;;;;5051973;28;20045;-56
2022/09/03 02:04:01;;;;;;;3.38;1.00;;;16.20;80.80;;;;;;5046546;28;20047;-54
2022/09/03 02:06:30;;;;;;;2.67;0.90;;;16.20;80.90;;;;;;5044556;28;20049;-54
2022/09/03 02:08:56;;;;;;;2.35;1.00;;;16.20;81.00;;;;;;5043392;28;20059;-55
2022/09/03 02:11:23;;;;;;;4.03;1.13;;;16.20;81.00;;;;;;5048912;28;20060;-55
2022/09/03 02:13:53;;;;;;;4.10;0.93;;;16.20;81.10;;;;;;5050186;28;20506;-56
2022/09/03 02:16:23;;;;;;;4.53;0.98;;;16.20;81.20;;;;;;5028110;28;20051;-52
2022/09/03 02:19:06;;;;;;;6.72;1.10;;;16.10;81.20;;;;;;5039138;28;20422;-55
2022/09/03 02:21:38;;;;;;;3.33;0.88;;;16.10;81.30;;;;;;5046583;28;20045;-52
2022/09/03 02:24:05;;;;;;;1.80;1.00;;;16.10;81.40;;;;;;5043720;28;20053;-52
2022/09/03 02:26:31;;;;;;;4.60;0.95;;;16.10;81.40;;;;;;5027552;28;20079;-53
2022/09/03 02:28:57;;;;;;;2.90;1.17;;;16.00;81.50;;;;;;5046911;28;20044;-56
2022/09/03 02:31:23;;;;;;;4.40;1.35;;;16.00;81.60;;;;;;5043538;28;20044;-51
2022/09/03 02:33:50;;;;;;;1.67;0.80;;;16.00;81.60;;;;;;5045009;28;20385;-57
2022/09/03 02:36:20;;;;;;;3.55;1.00;;;16.00;81.80;;;;;;5050212;28;20049;-55
2022/09/03 02:38:46;;;;;;;1.60;0.80;;;16.00;81.70;;;;;;5055297;22;20037;-57
2022/09/03 02:41:14;;;;;;;1.92;0.90;;;15.90;81.80;;;;;;5023203;28;20996;-57
2022/09/03 02:43:52;;;;;;;3.85;1.10;;;15.90;81.90;;;;;;5037406;28;20063;-57
2022/09/03 02:46:26;;;;;;;3.78;0.90;;;15.90;82.30;;;;;;5039599;28;20040;-57
2022/09/03 02:48:53;;;;;;;3.72;1.13;;;15.90;82.10;;;;;;5021122;28;20071;-57
2022/09/03 02:51:19;;;;;;;2.28;0.80;;;15.80;82.20;;;;;;5024822;28;20142;-57
2022/09/03 02:53:45;;;;;;;3.88;1.10;;;15.80;82.50;;;;;;5042313;28;20099;-56
2022/09/03 02:56:11;;;;;;;2.90;0.90;;;15.80;82.60;;;;;;5034211;28;20063;-56
2022/09/03 02:58:37;;;;;;;2.88;1.10;;;15.80;82.70;;;;;;5027378;28;20049;-56
2022/09/03 03:01:04;;;;;;;2.13;1.10;;;15.70;82.70;;;;;;5027042;28;20037;-57
2022/09/03 03:03:30;;;;;;;2.53;0.90;;;15.70;82.60;;;;;;5028856;28;20033;-57
2022/09/03 03:06:00;;;;;;;2.53;0.82;;;15.70;82.90;;;;;;5020951;28;20049;-57
2022/09/03 03:08:27;;;;;;;2.55;1.02;;;15.70;82.70;;;;;;5004181;28;20196;-54
2022/09/03 03:10:59;;;;;;;2.85;1.10;;;15.70;82.70;;;;;;5023451;28;20041;-58
2022/09/03 03:13:29;;;;;;;1.35;0.80;;;15.80;82.90;;;;;;5021387;28;20083;-56
2022/09/03 03:15:57;;;;;;;5.70;1.42;;;15.70;82.80;;;;;;5007693;28;20041;-55
2022/09/03 03:18:23;;;;;;;2.22;1.10;;;15.70;82.80;;;;;;5023239;28;20044;-58
2022/09/03 03:20:48;;;;;;;4.88;0.90;;;15.70;82.80;;;;;;5025846;28;20057;-58
2022/09/03 03:23:14;;;;;;;3.72;1.10;;;15.80;82.90;;;;;;5018227;28;20045;-57
2022/09/03 03:25:40;;;;;;;2.33;0.90;;;15.80;82.90;;;;;;5034378;28;20043;-57
2022/09/03 03:28:06;;;;;;;0.73;0.65;;;15.80;82.90;;;;;;5021720;28;20351;-57
2022/09/03 03:30:33;;;;;;;3.80;1.15;;;15.80;82.70;;;;;;5023747;28;20056;-58
2022/09/03 03:33:00;;;;;;;5.28;0.80;;;15.80;82.70;;;;;;5024184;28;20032;-57
2022/09/03 03:35:25;;;;;;;5.88;1.00;;;15.80;83.10;;;;;;5043662;28;20327;-58
2022/09/03 03:37:51;;;;;;;4.75;1.52;;;15.80;82.80;;;;;;5004977;28;20307;-58
2022/09/03 03:40:19;;;;;;;2.83;1.10;;;15.80;82.60;;;;;;5020705;28;20095;-56
2022/09/03 03:42:44;;;;;;;1.95;0.88;;;15.80;82.90;;;;;;5030303;28;20097;-56
2022/09/03 03:45:10;;;;;;;1.23;0.63;;;15.80;82.80;;;;;;5019460;28;20052;-57
2022/09/03 03:47:36;;;;;;;2.95;1.23;;;15.80;82.70;;;;;;4991787;28;20041;-56
2022/09/03 03:50:03;;;;;;;1.38;0.90;;;15.90;82.60;;;;;;5025292;28;20052;-56
2022/09/03 03:52:29;;;;;;;2.80;0.90;;;15.90;82.60;;;;;;5025340;28;20056;-56
2022/09/03 03:54:56;;;;;;;2.60;0.90;;;15.90;82.80;;;;;;5012527;28;20052;-57
2022/09/03 03:57:22;;;;;;;1.65;0.82;;;15.90;82.80;;;;;;5001905;28;20048;-57
2022/09/03 03:59:48;;;;;;;1.33;0.65;;;15.90;82.90;;;;;;5026118;28;20060;-57
2022/09/03 04:02:17;;;;;;;4.45;0.90;;;15.90;83.00;;;;;;5038063;28;20054;-56
2022/09/03 04:04:42;;;;;;;2.80;1.05;;;15.90;83.00;;;;;;5031933;28;20396;-58
2022/09/03 04:07:08;;;;;;;2.50;0.90;;;15.80;83.10;;;;;;5044524;28;20037;-57
2022/09/03 04:09:34;;;;;;;2.00;1.20;;;15.90;83.10;;;;;;5016655;28;20036;-57
2022/09/03 04:12:02;;;;;;;2.67;0.93;;;15.90;83.10;;;;;;5033121;28;20041;-56
2022/09/03 04:14:28;;;;;;;3.72;0.80;;;15.80;83.20;;;;;;5022085;28;20037;-58
2022/09/03 04:16:54;;;;;;;3.10;1.00;;;15.80;83.30;;;;;;5010454;28;20052;-56
2022/09/03 04:19:20;;;;;;;2.00;0.88;;;15.80;83.50;;;;;;5025161;28;20416;-57
2022/09/03 04:21:46;;;;;;;1.83;0.80;;;15.80;83.40;;;;;;5023967;28;20045;-58
2022/09/03 04:24:12;;;;;;;5.03;0.85;;;15.80;83.30;;;;;;5026841;28;20126;-57
2022/09/03 04:26:39;;;;;;;2.95;1.13;;;15.80;83.40;;;;;;5031824;28;20041;-58
2022/09/03 04:29:07;;;;;;;2.58;1.00;;;15.80;83.30;;;;;;5041930;28;20498;-57
2022/09/03 04:31:34;;;;;;;2.35;0.90;;;15.80;83.40;;;;;;5022199;28;20045;-57
2022/09/03 04:34:00;;;;;;;2.72;1.00;;;15.80;83.40;;;;;;5015163;28;20338;-57
2022/09/03 04:36:27;;;;;;;2.78;0.80;;;15.80;83.40;;;;;;5026740;28;20052;-57
2022/09/03 04:38:54;;;;;;;2.05;0.85;;;15.80;83.40;;;;;;5018728;28;20083;-55
2022/09/03 04:41:26;;;;;;;2.55;0.90;;;15.80;83.50;;;;;;5024657;28;20045;-58
2022/09/03 04:43:57;;;;;;;3.28;0.90;;;15.80;83.50;;;;;;5032297;28;20062;-58
2022/09/03 04:46:25;;;;;;;2.15;1.08;;;15.80;83.50;;;;;;5029224;28;20446;-58
2022/09/03 04:48:53;;;;;;;2.60;1.20;;;15.80;83.70;;;;;;5048195;28;20335;-58
2022/09/03 04:51:26;;;;;;;3.17;1.00;;;15.70;83.50;;;;;;5023956;28;20408;-58
2022/09/03 04:53:57;;;;;;;2.33;1.23;;;15.80;83.60;;;;;;5007626;28;20117;-57
2022/09/03 04:56:26;;;;;;;1.85;0.82;;;15.80;83.60;;;;;;5030716;28;20047;-58
2022/09/03 04:58:58;;;;;;;3.95;1.20;;;15.80;83.60;;;;;;5026724;28;20132;-58
2022/09/03 05:01:27;;;;;;;4.72;1.23;;;15.80;83.60;;;;;;5027190;28;20153;-58
2022/09/03 05:03:54;;;;;;;2.22;1.10;;;15.80;83.50;;;;;;5027003;28;20049;-58
2022/09/03 05:06:19;;;;;;;3.70;1.30;;;15.80;83.60;;;;;;5028597;28;20134;-58
2022/09/03 05:08:49;;;;;;;2.35;0.80;;;15.80;83.60;;;;;;5027050;28;20190;-57
2022/09/03 05:11:15;;;;;;;1.85;0.90;;;15.70;83.80;;;;;;5039967;28;20041;-58
2022/09/03 05:13:41;;;;;;;3.53;0.90;;;15.70;83.80;;;;;;5008584;28;20080;-57
2022/09/03 05:16:09;;;;;;;4.15;1.23;;;15.70;83.80;;;;;;5014907;28;20087;-57
2022/09/03 05:18:36;;;;;;;1.67;1.10;;;15.70;83.90;;;;;;5033265;28;20040;-56
2022/09/03 05:21:05;;;;;;;1.27;0.80;;;15.70;84.00;;;;;;5009599;28;20116;-57
2022/09/03 05:23:31;;;;;;;2.63;0.82;;;15.70;84.10;;;;;;5023588;28;20446;-57
2022/09/03 05:25:58;;;;;;;4.28;1.10;;;15.70;84.10;;;;;;5021852;28;20221;-58
2022/09/03 05:28:26;;;;;;;2.05;1.15;;;15.70;84.20;;;;;;5022385;28;20041;-57
2022/09/03 05:31:13;;;;;;;1.92;0.93;;;15.70;84.30;;;;;;5008525;28;20060;-58
2022/09/03 05:33:41;;;;;;;2.13;1.00;;;15.70;84.50;;;;;;5011810;28;20127;-58
2022/09/03 05:36:13;;;;;;;3.08;1.00;;;15.60;84.60;;;;;;5025475;28;20048;-58
2022/09/03 05:38:39;;;;;;;4.13;1.55;;;15.60;84.80;;;;;;5022354;28;20041;-57
2022/09/03 05:41:08;;;;;;;2.80;0.90;;;15.60;85.00;;;;;;5026605;28;20053;-57
2022/09/03 05:43:35;;;;;;;2.13;1.15;;;15.60;85.10;;;;;;5038881;28;20094;-56
2022/09/03 05:46:06;;;;;;;2.95;1.17;;;15.60;85.40;;;;;;5022753;28;20045;-58
2022/09/03 05:48:34;;;;;;;3.03;1.17;;;15.50;85.70;;;;;;5029023;28;20053;-56
2022/09/03 05:51:21;;;;;;;4.05;1.55;;;15.50;85.70;;;;;;5021989;28;20040;-56
2022/09/03 05:53:47;;;;;;;3.25;1.25;;;15.50;85.80;;;;;;5016547;28;20048;-56
2022/09/03 05:56:19;;;;;;;5.88;1.23;;;15.50;86.10;;;;;;5019262;28;20945;-58
2022/09/03 05:58:47;;;;;;;2.63;1.20;;;15.50;86.20;;;;;;5031871;28;20049;-58
2022/09/03 06:01:15;;;;;;;4.18;1.55;;;15.50;86.20;;;;;;5025982;28;20395;-59
2022/09/03 06:03:43;;;;;;;2.78;1.33;;;15.50;86.30;;;;;;5047731;28;20263;-57
2022/09/03 06:06:09;;;;;;;1.65;1.17;;;15.50;86.60;;;;;;5043817;28;20115;-56
2022/09/03 06:08:38;;;;;;;4.82;1.60;;;15.60;86.50;;;;;;5029039;28;20064;-57
2022/09/03 06:11:05;;;;;;;3.50;1.38;;;15.60;86.40;;;;;;5010721;28;20033;-58
2022/09/03 06:13:32;;;;;;;4.57;1.38;;;15.60;86.60;;;;;;4992752;28;20112;-55
2022/09/03 06:16:00;;;;;;;1.80;1.00;;;15.60;86.80;;;;;;5029188;28;20225;-58
2022/09/03 06:18:26;;;;;;;2.28;1.40;;;15.60;86.80;;;;;;5025126;28;20124;-57
2022/09/03 06:21:00;;;;;;;2.40;1.35;;;15.70;86.70;;;;;;5028259;28;20037;-57
2022/09/03 06:23:28;;;;;;;2.72;1.35;;;15.70;86.70;;;;;;5023622;28;20119;-57
2022/09/03 06:26:01;;;;;;;2.30;1.23;;;15.80;87.20;;;;;;5014014;28;20047;-58
2022/09/03 06:28:27;;;;;;;3.70;1.30;;;15.80;86.60;;;;;;5004034;28;20060;-58
2022/09/03 06:30:57;;;;;;;2.40;1.20;;;16.00;86.50;;;;;;5013381;28;20488;-58
2022/09/03 06:33:23;;;;;;;3.75;1.27;;;16.10;86.40;;;;;;5027073;28;20033;-58
2022/09/03 06:35:56;;;;;;;2.40;1.13;;;16.20;86.30;;;;;;5018093;28;20044;-57
2022/09/03 06:38:23;;;;;;;2.70;1.35;;;16.30;86.10;;;;;;5020157;28;20090;-58
2022/09/03 06:40:56;;;;;;;3.63;1.58;;;16.40;86.80;;;;;;5031228;28;20051;-58
2022/09/03 06:43:23;;;;;;;2.35;1.40;;;16.50;85.70;;;;;;5047330;28;20565;-59
2022/09/03 06:45:56;;;;;;;3.80;1.40;;;16.50;85.50;;;;;;5027315;28;20075;-57
2022/09/03 06:48:23;;;;;;;1.77;1.27;;;16.60;85.00;;;;;;5023789;28;20068;-58
2022/09/03 06:50:57;;;;;;;3.30;1.23;;;16.70;85.00;;;;;;5020244;28;20561;-57
2022/09/03 06:53:28;;;;;;;4.32;1.33;;;16.80;85.10;;;;;;5035739;28;20040;-58
2022/09/03 06:55:55;;;;;;;2.10;1.20;;;16.80;84.50;;;;;;5009011;28;20223;-58
2022/09/03 06:58:22;;;;;;;3.42;1.40;;;16.90;84.50;;;;;;5024838;28;20041;-58
2022/09/03 07:00:48;;;;;;;6.28;1.08;;;17.00;84.60;;;;;;5032162;28;20455;-59
2022/09/03 07:03:16;;;;;;;2.60;1.10;;;17.10;84.50;;;;;;5026913;28;20068;-62
2022/09/03 07:05:43;;;;;;;3.85;1.55;;;17.20;84.50;;;;;;5023699;28;20053;-57
2022/09/03 07:08:09;;;;;;;3.00;1.10;;;17.30;83.50;;;;;;5020730;28;20075;-58
2022/09/03 07:10:38;;;;;;;2.33;1.10;;;17.30;83.60;;;;;;5032442;28;20033;-57
2022/09/03 07:13:07;;;;;;;2.70;1.20;;;17.40;83.20;;;;;;5008134;28;20041;-59
2022/09/03 07:15:33;;;;;;;4.32;1.10;;;17.50;83.60;;;;;;5030012;28;20149;-57
2022/09/03 07:17:59;;;;;;;3.90;1.30;;;17.50;83.20;;;;;;5025408;28;20496;-57
2022/09/03 07:20:25;;;;;;;5.63;1.35;;;17.60;83.20;;;;;;5027389;28;20053;-56
2022/09/03 07:22:55;;;;;;;3.80;1.52;;;17.70;83.00;;;;;;5009654;28;20522;-57
2022/09/03 07:25:22;;;;;;;2.63;1.20;;;17.80;82.40;;;;;;5026282;28;20415;-56
2022/09/03 07:27:50;;;;;;;4.20;1.40;;;17.80;82.40;;;;;;5028542;28;20086;-56
2022/09/03 07:30:17;;;;;;;2.63;1.23;;;17.90;82.30;;;;;;5017391;28;20545;-56
2022/09/03 07:32:43;;;;;;;2.85;1.50;;;18.00;81.90;;;;;;5028563;28;20492;-56
2022/09/03 07:35:08;;;;;;;9.05;1.30;;;17.90;82.30;;;;;;5031263;28;20091;-53
2022/09/03 07:37:34;;;;;;;4.95;1.40;;;18.00;81.70;;;;;;5043772;28;20195;-55
2022/09/03 07:40:00;;;;;;;3.00;1.40;;;18.10;82.30;;;;;;5026010;28;20041;-55
2022/09/03 07:42:27;;;;;;;3.40;1.13;;;18.20;81.70;;;;;;5028411;28;20053;-57
2022/09/03 07:44:54;;;;;;;2.67;1.30;;;18.30;81.40;;;;;;5030556;28;20049;-55
2022/09/03 07:47:20;;;;;;;2.67;1.35;;;18.40;81.50;;;;;;4996619;28;20049;-58
2022/09/03 07:49:45;;;;;;;5.70;1.50;;;18.40;81.50;;;;;;5015342;28;20051;-58
2022/09/03 07:52:11;;;;;;;3.63;1.48;;;18.50;81.00;;;;;;5017927;28;20037;-55
2022/09/03 07:54:37;;;;;;;4.60;1.30;;;18.50;80.70;;;;;;5012055;28;20037;-58
2022/09/03 07:57:03;;;;;;;4.40;1.52;;;18.50;81.10;;;;;;5008719;28;20068;-54
2022/09/03 07:59:28;;;;;;;3.58;1.30;;;18.60;81.30;;;;;;5020095;28;20206;-57
2022/09/03 08:01:54;;;;;;;2.67;1.40;;;18.70;81.50;;;;;;5021289;28;20519;-57
2022/09/03 08:04:20;;;;;;;2.22;1.13;;;18.80;81.00;;;;;;5014840;28;20041;-58
2022/09/03 08:06:47;;;;;;;2.42;1.13;;;18.90;81.10;;;;;;5023910;28;20440;-57
2022/09/03 08:09:12;;;;;;;3.60;1.45;;;18.90;80.00;;;;;;5026219;28;20044;-56
2022/09/03 08:11:42;;;;;;;2.72;1.63;;;19.00;80.40;;;;;;5005259;28;20041;-59
2022/09/03 08:14:10;;;;;;;5.15;1.83;;;19.10;80.00;;;;;;5028039;28;20071;-58
2022/09/03 08:16:41;;;;;;;4.00;1.40;;;19.10;80.10;;;;;;5007075;28;20094;-59
2022/09/03 08:19:07;;;;;;;4.25;1.48;;;19.30;80.70;;;;;;5030033;28;20038;-59
2022/09/03 08:21:34;;;;;;;2.72;1.13;;;19.40;80.10;;;;;;5017031;28;20061;-58
2022/09/03 08:24:02;;;;;;;4.97;1.20;;;19.50;80.00;;;;;;5028218;28;20059;-57
2022/09/03 08:26:30;;;;;;;5.10;1.58;;;19.60;79.80;;;;;;5011374;28;20511;-58
2022/09/03 08:28:57;;;;;;;3.80;1.67;;;19.60;79.40;;;;;;5022840;28;20332;-56
2022/09/03 08:31:23;;;;;;;4.88;1.95;;;19.70;79.70;;;;;;5021298;28;20037;-55
2022/09/03 08:33:54;;;;;;;3.88;1.63;;;19.70;79.50;;;;;;5031290;28;20045;-55
2022/09/03 08:36:26;;;;;;;3.05;1.20;;;19.70;78.80;;;;;;5020497;28;20491;-56
2022/09/03 08:38:55;;;;;;;2.58;1.40;;;19.80;78.40;;;;;;5060631;23;20056;-57
2022/09/03 08:41:52;;;;;;;3.55;1.45;;;19.80;78.80;;;;;;5062894;28;20455;-57
2022/09/03 08:44:38;;;;;;;4.97;1.55;;;19.90;78.20;;;;;;5081592;28;20043;-57
2022/09/03 08:47:36;;;;;;;3.33;1.20;;;20.00;78.90;;;;;;5070566;28;20119;-57
2022/09/03 08:50:16;;;;;;;5.07;1.70;;;20.10;78.10;;;;;;5070226;28;20051;-55
2022/09/03 08:53:06;;;;;;;4.85;1.40;;;20.20;78.00;;;;;;5071861;28;20278;-55
2022/09/03 08:55:55;;;;;;;2.45;1.10;;;20.30;78.00;;;;;;5066754;28;20051;-57
2022/09/03 08:58:24;;;;;;;7.07;1.80;;;20.40;78.30;;;;;;5069623;28;20127;-57
2022/09/03 09:01:02;;;;;;;3.38;1.55;;;20.50;77.20;;;;;;5065919;28;20036;-57
2022/09/03 09:04:06;;;;;;;4.10;1.33;;;20.60;77.80;;;;;;5054195;28;20070;-57
2022/09/03 09:07:05;;;;;;;2.17;1.20;;;20.70;76.70;;;;;;5070296;28;20040;-57
2022/09/03 09:09:43;;;;;;;4.82;1.30;;;20.70;77.30;;;;;;5070505;28;20059;-56
2022/09/03 09:12:14;;;;;;;4.25;1.27;;;20.90;76.80;;;;;;5067949;28;20438;-55
2022/09/03 09:14:54;;;;;;;6.53;1.30;;;21.00;77.30;;;;;;5074884;28;20044;-55
2022/09/03 09:17:30;;;;;;;6.38;1.60;;;21.30;76.30;;;;;;5063906;28;20040;-56
2022/09/03 09:20:10;;;;;;;1.83;1.00;;;21.40;76.10;;;;;;5069128;28;20040;-57
2022/09/03 09:23:03;;;;;;;3.90;1.40;;;21.40;75.80;;;;;;5068267;28;20044;-57
2022/09/03 09:25:31;;;;;;;3.20;1.27;;;21.50;75.40;;;;;;5067478;28;20052;-57
2022/09/03 09:28:03;;;;;;;3.28;1.23;;;21.50;75.30;;;;;;5070013;28;20241;-57
2022/09/03 09:30:30;;;;;;;2.58;1.00;;;21.50;75.00;;;;;;5064215;28;20546;-56
2022/09/03 09:32:56;;;;;;;3.63;1.05;;;21.70;76.10;;;;;;5052939;28;20047;-54
2022/09/03 09:35:22;;;;;;;3.22;1.23;;;21.80;75.90;;;;;;5052231;28;20032;-56
2022/09/03 09:37:49;;;;;;;1.48;1.02;;;22.00;76.00;;;;;;5068689;28;20043;-57
2022/09/03 09:40:35;;;;;;;4.72;1.50;;;22.10;75.70;;;;;;5087566;28;20039;-56
2022/09/03 09:43:14;;;;;;;4.70;1.75;;;22.30;74.80;;;;;;5069949;28;20028;-57
2022/09/03 09:45:45;;;;;;;4.50;1.63;;;22.40;75.10;;;;;;5066660;28;20036;-57
2022/09/03 09:48:18;;;;;;;4.35;1.38;;;22.30;74.00;;;;;;5062614;28;20037;-58
2022/09/03 09:50:43;;;;;;;2.63;1.40;;;22.30;73.60;;;;;;5064838;28;20181;-58
2022/09/03 09:53:14;;;;;;;6.63;1.45;;;22.30;73.80;;;;;;5053725;28;20126;-57
2022/09/03 09:56:01;;;;;;;1.33;1.00;;;22.40;74.40;;;;;;5067734;28;20086;-56
2022/09/03 09:58:29;;;;;;;3.80;1.27;;;22.60;73.00;;;;;;5085442;28;20036;-57
2022/09/03 10:01:12;;;;;;;2.75;1.30;;;22.70;73.80;;;;;;5065013;28;20552;-56
2022/09/03 10:03:47;;;;;;;4.32;1.65;;;22.90;73.00;;;;;;5078476;28;20047;-57
2022/09/03 10:09:12;;;;;;;3.00;1.30;;;23.00;74.60;;;;;;5060523;28;20044;-57
2022/09/03 10:11:42;;;;;;;2.50;1.02;;;23.20;73.30;;;;;;5059294;28;20071;-58
2022/09/03 10:14:18;;;;;;;5.78;1.60;;;23.20;72.00;;;;;;5061509;28;20040;-57
2022/09/03 10:16:49;;;;;;;4.90;1.23;;;23.20;73.90;;;;;;5060692;28;20340;-56
2022/09/03 10:19:22;;;;;;;3.05;1.65;;;23.30;74.30;;;;;;5057402;28;20615;-56
2022/09/03 10:21:50;;;;;;;4.22;1.30;;;23.30;73.90;;;;;;5062465;28;20082;-57
2022/09/03 10:25:01;;;;;;;4.82;1.40;;;23.40;74.20;;;;;;5061263;28;20067;-57
2022/09/03 10:27:27;;;;;;;5.10;1.25;;;23.50;74.50;;;;;;5052707;28;20087;-58
2022/09/03 10:29:53;;;;;;;3.55;1.20;;;23.60;73.30;;;;;;5058277;28;20701;-57
2022/09/03 10:33:09;;;;;;;3.05;1.58;;;23.60;73.80;;;;;;5043098;28;20401;-57
2022/09/03 10:35:52;;;;;;;4.40;1.40;;;23.50;72.40;;;;;;4988055;28;20033;-57
2022/09/03 10:38:31;;;;;;;4.75;1.33;;;23.40;72.60;;;;;;5056260;28;20609;-56
2022/09/03 10:41:28;;;;;;;3.92;1.38;;;23.50;72.30;;;;;;5063324;28;20047;-54
2022/09/03 10:44:10;;;;;;;8.68;1.50;;;23.60;72.90;;;;;;5051115;28;20047;-56
2022/09/03 10:46:59;;;;;;;3.50;1.20;;;23.80;73.80;;;;;;5063032;28;20116;-56
2022/09/03 10:49:49;;;;;;;5.05;1.48;;;23.90;73.20;;;;;;5041590;28;20546;-57
2022/09/03 10:52:48;;;;;;;4.45;1.33;;;24.00;71.10;;;;;;5061000;28;20499;-57
2022/09/03 10:55:46;;;;;;;3.83;1.35;;;23.80;71.60;;;;;;5084333;28;20090;-58
2022/09/03 10:58:12;;;;;;;2.83;1.13;;;23.90;71.00;;;;;;5068474;28;20502;-58
2022/09/03 11:00:46;;;;;;;4.88;1.27;;;24.10;72.60;;;;;;5059959;28;20050;-57
2022/09/03 11:03:33;;;;;;;6.00;1.30;;;24.20;71.90;;;;;;5077447;28;20107;-57
2022/09/03 11:06:09;;;;;;;3.00;1.45;;;24.20;70.30;;;;;;5066264;28;20039;-57
2022/09/03 11:08:38;;;;;;;2.75;1.10;;;24.10;70.90;;;;;;5067850;28;20028;-57
2022/09/03 11:11:18;;;;;;;3.47;1.27;;;24.30;70.80;;;;;;5069265;28;20028;-57
2022/09/03 11:13:50;;;;;;;2.72;1.40;;;24.40;71.10;;;;;;5047123;28;20041;-58
2022/09/03 11:16:18;;;;;;;1.58;1.48;;;24.60;70.60;;;;;;5085269;28;20110;-58
2022/09/03 11:19:10;;;;;;;3.58;1.10;;;24.70;70.20;;;;;;5057409;28;20109;-58
2022/09/03 11:21:40;;;;;;;3.25;1.15;;;24.80;67.30;;;;;;5078595;28;20070;-58
2022/09/03 11:24:07;;;;;;;2.00;1.20;;;24.90;69.70;;;;;;5065341;28;20051;-58
2022/09/03 11:26:35;;;;;;;1.80;1.00;;;25.00;69.10;;;;;;5064650;28;20083;-58
2022/09/03 11:29:24;;;;;;;2.03;1.20;;;25.10;68.10;;;;;;5042458;28;20039;-58
2022/09/03 11:32:10;;;;;;;3.53;1.77;;;25.20;69.50;;;;;;5061113;28;20418;-57
2022/09/03 11:34:46;;;;;;;6.10;2.35;;;25.30;67.50;;;;;;5050166;28;20146;-58
2022/09/03 11:37:22;;;;;;;3.63;1.10;;;25.40;68.40;;;;;;5079711;28;20035;-58
2022/09/03 11:40:03;;;;;;;1.98;1.38;;;25.40;66.20;;;;;;5064062;28;20462;-58
2022/09/03 11:42:40;;;;;;;2.22;1.20;;;25.50;65.60;;;;;;5063476;28;20052;-58
2022/09/03 11:45:20;;;;;;;3.60;1.10;;;25.40;65.10;;;;;;5064939;28;20051;-58
2022/09/03 11:47:46;;;;;;;3.88;1.10;;;25.50;65.90;;;;;;5064389;28;20043;-58
2022/09/03 11:50:21;;;;;;;3.17;1.27;;;25.60;65.70;;;;;;5045133;28;20052;-57
2022/09/03 11:52:52;;;;;;;3.10;1.10;;;25.60;64.60;;;;;;5060707;28;20410;-58
2022/09/03 11:55:29;;;;;;;4.70;1.13;;;25.60;65.40;;;;;;5055383;28;20581;-55
2022/09/03 11:57:55;;;;;;;2.08;1.10;;;25.60;64.90;;;;;;5068152;28;20422;-59
2022/09/03 12:00:23;;;;;;;1.52;1.20;;;25.70;65.70;;;;;;5067839;28;20040;-57
2022/09/03 12:03:01;;;;;;;3.53;1.13;;;26.00;63.90;;;;;;5066975;28;20040;-58
2022/09/03 12:05:58;;;;;;;1.90;1.20;;;25.90;62.30;;;;;;5055761;28;20518;-55
2022/09/03 12:08:58;;;;;;;2.67;1.08;;;25.90;63.60;;;;;;5057174;28;20075;-57
2022/09/03 12:11:45;;;;;;;3.08;1.20;;;26.10;63.60;;;;;;5067180;28;20445;-58
2022/09/03 12:14:56;;;;;;;2.75;1.17;;;26.10;63.20;;;;;;5057467;28;20074;-57
2022/09/03 12:18:31;;;;;;;5.82;1.60;;;26.10;62.30;;;;;;5083974;28;20499;-56
2022/09/03 12:20:58;;;;;;;6.72;1.40;;;26.20;62.60;;;;;;5055546;28;20052;-57
2022/09/03 12:23:46;;;;;;;3.83;1.10;;;26.20;62.00;;;;;;5059952;28;20131;-58
2022/09/03 12:26:15;;;;;;;6.20;1.80;;;26.20;59.70;;;;;;5053278;28;20048;-57
2022/09/03 12:28:50;;;;;;;6.50;1.10;;;26.10;59.60;;;;;;5062160;28;20040;-56
2022/09/03 12:31:23;;;;;;;3.30;1.27;;;25.90;59.70;;;;;;5069383;28;20040;-57
2022/09/03 12:34:08;;;;;;;2.20;1.20;;;26.00;60.70;;;;;;5068257;28;20044;-58
2022/09/03 12:36:43;;;;;;;5.43;1.23;;;26.10;60.40;;;;;;5073066;28;20043;-58
2022/09/03 12:39:23;;;;;;;3.85;1.10;;;26.30;59.60;;;;;;5077663;28;20496;-58
2022/09/03 12:42:02;;;;;;;4.68;1.33;;;26.20;58.40;;;;;;5041955;28;20044;-58
2022/09/03 12:44:32;;;;;;;3.35;1.20;;;26.20;59.50;;;;;;5065256;28;20525;-58
2022/09/03 12:47:17;;;;;;;5.68;1.00;;;26.30;60.30;;;;;;5065482;28;20036;-58
2022/09/03 12:49:48;;;;;;;3.45;1.13;;;26.40;59.30;;;;;;5073511;28;20364;-58
2022/09/03 12:52:31;;;;;;;2.53;0.95;;;26.60;60.30;;;;;;5083990;28;20333;-57
2022/09/03 12:55:00;;;;;;;;;;;26.90;59.20;;;;;;5060619;28;20209;-59
2022/09/03 12:57:48;;;;;;;2.05;0.82;;;26.80;58.40;;;;;;5076584;28;20043;-59
2022/09/03 13:00:17;;;;;;;2.65;1.13;;;26.90;57.70;;;;;;5059067;28;20052;-59
2022/09/03 13:03:10;;;;;;;5.57;0.90;;;26.80;57.80;;;;;;5071779;28;20172;-59
2022/09/03 13:05:43;;;;;;;6.50;1.33;;;26.70;57.40;;;;;;5060384;28;20073;-59
2022/09/03 13:08:17;;;;;;;5.03;1.20;;;26.70;58.10;;;;;;5068473;28;20116;-59
2022/09/03 13:10:43;;;;;;;2.50;1.27;;;26.60;58.70;;;;;;5076960;28;20036;-59
2022/09/03 13:13:24;;;;;;;1.20;1.00;;;26.70;58.90;;;;;;5087683;28;20242;-58
2022/09/03 13:16:11;;;;;;;3.75;1.40;;;27.00;58.10;;;;;;5076024;28;20028;-59
2022/09/03 13:19:14;;;;;;;3.75;1.30;;;27.00;56.80;;;;;;5088250;28;20050;-59
2022/09/03 13:21:43;;;;;;;3.30;1.20;;;26.90;56.50;;;;;;5084643;28;20139;-59
2022/09/03 13:24:21;;;;;;;4.78;1.30;;;27.00;57.30;;;;;;5087035;28;20051;-59